• Join FlightAware (Why Join?)
  • Login
  • US Flag 
02:04PM EDT


 

Airport Tracker/Info


-or-


 

Live Flight TrackerFlight Track Log ✈ KAP550 ✈ 15-May-2013 ✈ KALB - KMSS

Flight Track Log - Related Links

Times and Time Zones

All times are in EDT time to prevent confusion due to time zone crossing. See the KAP550 flight status page for this flight to view local times or setup timezone preferences in your user account.

Time Position Orientation Groundspeed Altitude Reporting Facility
EDT Latitude Longitude Course Direction KTS MPH feet Rate Location/Type
02:42PM 44.1047 -74.4389 341° North  Level Estimated
02:43PM 44.1342 -74.4531 341° North  Level Estimated
02:44PM 44.1638 -74.4674 341° North  Level Estimated
02:45PM 44.1934 -74.4816 341° North  Level Estimated
02:46PM 44.2229 -74.4959 341° North  Level Estimated
02:47PM 44.2525 -74.5102 341° North  Level Estimated
02:48PM 44.2820 -74.5245 341° North  Level Estimated
02:49PM 44.3116 -74.5388 341° North  Level Estimated
02:50PM 44.3412 -74.5532 341° North  Level Estimated
02:51PM 44.3707 -74.5675 341° North  Level Estimated
02:52PM 44.4003 -74.5819 341° North  Level Estimated
02:53PM 44.4298 -74.5963 341° North  Level Estimated
02:54PM 44.4594 -74.6107 341° North  Level Estimated
02:55PM 44.4889 -74.6251 341° North  Level Estimated
02:56PM 44.5185 -74.6395 341° North  Level Estimated
02:57PM 44.5480 -74.6539 341° North  Level Estimated
02:58PM 44.5775 -74.6684 341° North  Level Estimated
02:59PM 44.6071 -74.6829 341° North  Level Estimated
03:00PM 44.6366 -74.6973 341° North  Level Estimated
03:01PM 44.6661 -74.7118 341° North  Level Estimated
03:02PM 44.6957 -74.7263 341° North  Level Estimated
03:03PM 44.7252 -74.7409 341° North  Level Estimated
03:04PM 44.7547 -74.7554 341° North  Level Estimated
03:05PM 44.7843 -74.7700 341° North  Level Estimated
03:06PM 44.8138 -74.7845 341° North  Level Estimated
03:07PM 44.8433 -74.7991 341° North  Level Estimated
03:08PM 44.8728 -74.8137 341° North  Level Estimated
03:09PM 44.9024 -74.8283 341° North  Level Estimated
03:10PM 44.9319 -74.8430 341° North  Level Estimated
03:11PM 44.9362 -74.8451 341° North  Level Estimated
03:12PM 44.9362 -74.8451 15° North  Level Estimated
03:13PM 44.9362 -74.8451 15° North  Level Estimated
03:14PM 44.9362 -74.8451 15° North  Level Estimated
03:15PM 44.9362 -74.8451 15° North  Level Estimated
03:16PM 44.9362 -74.8451 15° North  Level Estimated
03:17PM 44.9362 -74.8451 15° North  Level Estimated
03:18PM 44.9362 -74.8451 15° North  Level Estimated
03:19PM 44.9362 -74.8451 15° North  Level Estimated
03:20PM 44.9362 -74.8451 15° North  Level Estimated
03:21PM 44.9362 -74.8451 15° North  Level Estimated
03:22PM 44.9362 -74.8451 15° North  Level Estimated
03:22PM 43.3967 -74.1258 15° North 157 181 6,400  Level Boston Center
03:23PM 44.9362 -74.8451 15° North  Level Estimated
03:23PM 43.4483 -74.1531 339° North 178 205 6,400  Level Boston Center
03:24PM 44.9362 -74.8451 15° North  Level Estimated
03:24PM 43.5022 -74.1747 344° North 192 221 6,400  Level Boston Center
03:25PM 44.9362 -74.8451 15° North  Level Estimated
03:25PM 43.5519 -74.1989 341° North 192 221 6,400  Level Boston Center
03:26PM 44.9362 -74.8451 15° North  Level Estimated
03:26PM 43.6036 -74.2236 341° North 192 221 6,400  Level Boston Center
03:27PM 44.9362 -74.8451 15° North  Level Estimated
03:27PM 43.6594 -74.2481 342° North 192 221 6,400  Level Boston Center
03:28PM 43.7133 -74.2756 340° North 192 221 6,400 -240 Level Boston Center
03:29PM 43.7650 -74.2972 343° North 192 221 6,000 -240 Descending Boston Center
03:30PM 43.8208 -74.3250 340° North 192 221 6,000  Level Boston Center
03:31PM 43.8725 -74.3467 343° North 192 221 6,000  Level Boston Center
03:32PM 43.9222 -74.3683 343° North 192 221 6,100  Climbing Boston Center
03:33PM 43.9739 -74.3903 343° North 192 221 6,100 -60 Level Boston Center
03:34PM 44.0236 -74.4150 340° North 187 215 6,000 -180 Descending Boston Center
03:35PM 44.0753 -74.4397 341° North 187 215 5,800 -240 Descending Boston Center
03:36PM 44.1247 -74.4617 342° North 187 215 5,600 -300 Descending Boston Center
03:37PM 44.1786 -74.4867 342° North 187 215 5,300 -300 Descending Boston Center
03:38PM 44.2261 -74.5114 340° North 187 215 5,000 -300 Descending Boston Center
03:39PM 44.2778 -74.5336 343° North 187 215 4,700 -240 Descending Boston Center
03:40PM 44.3294 -74.5586 341° North 192 221 4,600 -120 Descending Boston Center
03:41PM 44.3811 -74.5781 345° North 192 221 4,500 -60 Descending Boston Center
03:42PM 44.4306 -74.6031 340° North 186 214 4,500 -300 Level Boston Center
03:43PM 44.4739 -74.6278 338° Northwest 186 214 4,000 -480 Descending Boston Center
03:44PM 44.5317 -74.6533 343° North 186 214 3,600 -420 Descending Boston Center